Accueil
METAR-TAF:

METAR-TAF

Aéroports :

Aéroport international de Tozeur-Nefta

Tozeur, Tunisie

latitude: 33-55N, longitude: 008-06E, altitude: 87 m

Observation

Le bulletin a été fait il y a 30 minutes, à 06:00 UTC
Vent 12 kt de est/sud-est
Température 21°C
Humidité 56%
Pression 1017 hPa
Visibilité 10 km ou plus
Nuages épars à une hauteur de 3000 ft

METAR: DTTZ 290600Z 12012KT 9999 SCT030 21/12 Q1017

Heure: 07:30 (06:30 UTC)

Prévision

Le bulletin a été fait il y a 1 heure et 30 minutes, à 05:00 UTC
Prévision valable du 29 à 06 UTC au 30 à 06 UTC
Vent 12 kt de est
Visibilité 10 km ou plus
Quelques nuages à une hauteur de 3000 ft
Probabilité 30% :
Temporairement
du 29 à 12 UTC au 29 à 18 UTC
Visibilité: 4000 m
Quelques nuages à une hauteur de 2600 ft, Cumulonimbus.
orage, pluie faible

TAF: DTTZ 290500Z 2906/3006 10012KT 9999 FEW030 PROB30 TEMPO 2912/2918 4000 -TSRA FEW026CB

Observations et prévisions météorologiques de plus de 4000 aéroports (messages METAR et TAF).

Les stations disponibles sont représentées par des disques jaunes et rouges sur la carte.

Passer la souris dessus pour voir le nom de la station.

Cliquer dessus pour voir les observations et prévisions météorologiques.

Pour changer de carte: cliquez sur les boutons verts avec une croix noire pour zoomer, sur le bouton vert avec un tiret pour effectuer un zoom arrière, ou sur les flèches vertes pour les cartes adjacentes.


METAR-TAF: